sensor_id;sensor_type;location;lat;lon;timestamp;pressure;altitude;pressure_sealevel;temperature;humidity
70730;BME280;58315;53.336;55.932;2023-04-23T00:00:05;98894.84;;;10.34;60.87
70730;BME280;58315;53.336;55.932;2023-04-23T00:02:39;98884.03;;;10.45;60.51
70730;BME280;58315;53.336;55.932;2023-04-23T00:05:08;98884.03;;;10.45;60.44
70730;BME280;58315;53.336;55.932;2023-04-23T00:07:35;98894.25;;;10.40;60.08
70730;BME280;58315;53.336;55.932;2023-04-23T00:10:02;98891.66;;;10.48;60.32
70730;BME280;58315;53.336;55.932;2023-04-23T00:12:31;98893.22;;;10.59;60.19
70730;BME280;58315;53.336;55.932;2023-04-23T00:15:01;98899.06;;;10.71;60.18
70730;BME280;58315;53.336;55.932;2023-04-23T00:17:30;98901.00;;;10.60;59.59
70730;BME280;58315;53.336;55.932;2023-04-23T00:19:56;98897.22;;;10.45;59.59
70730;BME280;58315;53.336;55.932;2023-04-23T00:22:22;98898.22;;;10.44;60.20
70730;BME280;58315;53.336;55.932;2023-04-23T00:24:48;98905.91;;;10.55;60.16
70730;BME280;58315;53.336;55.932;2023-04-23T00:27:14;98909.06;;;10.59;59.85
70730;BME280;58315;53.336;55.932;2023-04-23T00:29:41;98905.25;;;10.53;59.92
70730;BME280;58315;53.336;55.932;2023-04-23T00:32:08;98900.34;;;10.67;60.00
70730;BME280;58315;53.336;55.932;2023-04-23T00:34:34;98915.00;;;10.79;59.21
70730;BME280;58315;53.336;55.932;2023-04-23T00:37:00;98911.66;;;10.77;59.32
70730;BME280;58315;53.336;55.932;2023-04-23T00:39:30;98912.69;;;10.84;59.10
70730;BME280;58315;53.336;55.932;2023-04-23T00:41:56;98907.91;;;10.88;58.91
70730;BME280;58315;53.336;55.932;2023-04-23T00:44:25;98903.47;;;10.88;59.21
70730;BME280;58315;53.336;55.932;2023-04-23T00:46:52;98920.34;;;10.95;59.13
70730;BME280;58315;53.336;55.932;2023-04-23T00:49:19;98915.84;;;10.88;58.93
70730;BME280;58315;53.336;55.932;2023-04-23T00:51:46;98908.03;;;10.78;59.18
70730;BME280;58315;53.336;55.932;2023-04-23T00:54:12;98915.03;;;10.87;59.28
70730;BME280;58315;53.336;55.932;2023-04-23T00:56:38;98910.72;;;10.86;59.06
70730;BME280;58315;53.336;55.932;2023-04-23T00:59:04;98919.00;;;10.91;59.34
70730;BME280;58315;53.336;55.932;2023-04-23T01:01:31;98924.66;;;10.96;58.85
70730;BME280;58315;53.336;55.932;2023-04-23T01:03:58;98926.50;;;11.04;58.73
70730;BME280;58315;53.336;55.932;2023-04-23T01:06:24;98925.53;;;11.05;58.51
70730;BME280;58315;53.336;55.932;2023-04-23T01:08:53;98936.94;;;11.05;58.30
70730;BME280;58315;53.336;55.932;2023-04-23T01:11:19;98933.59;;;11.03;58.43
70730;BME280;58315;53.336;55.932;2023-04-23T01:13:45;98931.66;;;11.05;58.81
70730;BME280;58315;53.336;55.932;2023-04-23T01:16:11;98938.59;;;11.06;58.37
70730;BME280;58315;53.336;55.932;2023-04-23T01:18:38;98939.38;;;10.99;58.38
70730;BME280;58315;53.336;55.932;2023-04-23T01:21:08;98940.41;;;10.80;58.93
70730;BME280;58315;53.336;55.932;2023-04-23T01:23:37;98941.81;;;10.66;59.24
70730;BME280;58315;53.336;55.932;2023-04-23T01:26:03;98943.19;;;10.52;59.38
70730;BME280;58315;53.336;55.932;2023-04-23T01:28:29;98946.03;;;10.59;59.43
70730;BME280;58315;53.336;55.932;2023-04-23T01:30:55;98943.28;;;10.60;59.58
70730;BME280;58315;53.336;55.932;2023-04-23T01:33:22;98946.25;;;10.66;59.60
70730;BME280;58315;53.336;55.932;2023-04-23T01:35:48;98955.81;;;10.84;59.62
70730;BME280;58315;53.336;55.932;2023-04-23T01:38:17;98959.13;;;10.86;59.48
70730;BME280;58315;53.336;55.932;2023-04-23T01:40:44;98961.50;;;10.98;59.34
70730;BME280;58315;53.336;55.932;2023-04-23T01:43:10;98959.94;;;11.13;59.24
70730;BME280;58315;53.336;55.932;2023-04-23T01:45:36;98963.97;;;11.25;59.12
70730;BME280;58315;53.336;55.932;2023-04-23T01:48:03;98974.75;;;11.32;59.01
70730;BME280;58315;53.336;55.932;2023-04-23T01:50:29;98959.38;;;11.35;58.92
70730;BME280;58315;53.336;55.932;2023-04-23T01:52:55;98967.56;;;11.50;58.37
70730;BME280;58315;53.336;55.932;2023-04-23T01:55:21;98972.22;;;11.56;58.57
70730;BME280;58315;53.336;55.932;2023-04-23T01:57:48;98970.41;;;11.57;58.21
70730;BME280;58315;53.336;55.932;2023-04-23T02:00:16;98973.03;;;11.57;57.94
70730;BME280;58315;53.336;55.932;2023-04-23T02:02:43;98983.31;;;11.60;58.01
70730;BME280;58315;53.336;55.932;2023-04-23T02:05:17;98978.84;;;11.61;57.88
70730;BME280;58315;53.336;55.932;2023-04-23T02:07:45;98981.66;;;11.59;58.28
70730;BME280;58315;53.336;55.932;2023-04-23T02:10:12;98974.19;;;11.54;58.56
70730;BME280;58315;53.336;55.932;2023-04-23T02:12:39;98980.28;;;11.55;58.58
70730;BME280;58315;53.336;55.932;2023-04-23T02:15:07;98977.69;;;11.63;58.16
70730;BME280;58315;53.336;55.932;2023-04-23T02:17:34;98990.75;;;11.65;58.54
70730;BME280;58315;53.336;55.932;2023-04-23T02:20:01;98988.66;;;11.76;58.13
70730;BME280;58315;53.336;55.932;2023-04-23T02:22:29;98988.56;;;11.86;58.11
70730;BME280;58315;53.336;55.932;2023-04-23T02:24:56;98997.16;;;11.88;57.98
70730;BME280;58315;53.336;55.932;2023-04-23T02:27:23;99004.31;;;11.96;57.86
70730;BME280;58315;53.336;55.932;2023-04-23T02:29:49;99004.97;;;12.06;57.65
70730;BME280;58315;53.336;55.932;2023-04-23T02:32:15;99004.00;;;12.07;57.78
70730;BME280;58315;53.336;55.932;2023-04-23T02:34:41;99004.16;;;12.05;57.51
70730;BME280;58315;53.336;55.932;2023-04-23T02:37:07;99006.78;;;11.97;57.29
70730;BME280;58315;53.336;55.932;2023-04-23T02:39:33;99008.41;;;11.90;57.42
70730;BME280;58315;53.336;55.932;2023-04-23T02:41:59;99008.91;;;11.86;58.08
70730;BME280;58315;53.336;55.932;2023-04-23T02:44:25;99012.88;;;11.90;58.04
70730;BME280;58315;53.336;55.932;2023-04-23T02:46:51;99009.13;;;12.00;58.06
70730;BME280;58315;53.336;55.932;2023-04-23T02:49:18;99014.41;;;12.09;57.87
70730;BME280;58315;53.336;55.932;2023-04-23T02:51:47;99009.31;;;12.23;57.54
70730;BME280;58315;53.336;55.932;2023-04-23T02:54:14;99014.16;;;12.36;57.42
70730;BME280;58315;53.336;55.932;2023-04-23T02:56:40;99013.66;;;12.41;57.31
70730;BME280;58315;53.336;55.932;2023-04-23T02:59:06;99025.09;;;12.41;57.12
70730;BME280;58315;53.336;55.932;2023-04-23T03:01:33;99018.78;;;12.34;57.46
70730;BME280;58315;53.336;55.932;2023-04-23T03:03:59;99026.41;;;12.29;57.40
70730;BME280;58315;53.336;55.932;2023-04-23T03:06:25;99022.56;;;12.23;57.82
70730;BME280;58315;53.336;55.932;2023-04-23T03:08:52;99023.56;;;12.30;57.81
70730;BME280;58315;53.336;55.932;2023-04-23T03:11:19;99033.72;;;12.43;57.94
70730;BME280;58315;53.336;55.932;2023-04-23T03:13:46;99026.59;;;12.44;57.65
70730;BME280;58315;53.336;55.932;2023-04-23T03:16:12;99030.56;;;12.48;57.49
70730;BME280;58315;53.336;55.932;2023-04-23T03:18:38;99037.00;;;12.45;57.43
70730;BME280;58315;53.336;55.932;2023-04-23T03:21:05;99032.03;;;12.42;57.44
70730;BME280;58315;53.336;55.932;2023-04-23T03:23:31;99041.63;;;12.35;57.63
70730;BME280;58315;53.336;55.932;2023-04-23T03:25:57;99043.63;;;12.41;57.91
70730;BME280;58315;53.336;55.932;2023-04-23T03:28:23;99045.59;;;12.39;58.36
70730;BME280;58315;53.336;55.932;2023-04-23T03:30:49;99042.94;;;12.39;58.31
70730;BME280;58315;53.336;55.932;2023-04-23T03:33:15;99047.53;;;12.21;58.48
70730;BME280;58315;53.336;55.932;2023-04-23T03:35:42;99045.88;;;12.12;59.05
70730;BME280;58315;53.336;55.932;2023-04-23T03:38:13;99049.38;;;12.20;59.23
70730;BME280;58315;53.336;55.932;2023-04-23T03:40:40;99050.25;;;12.37;58.67
70730;BME280;58315;53.336;55.932;2023-04-23T03:43:08;99045.97;;;12.44;58.84
70730;BME280;58315;53.336;55.932;2023-04-23T03:46:06;99044.13;;;12.53;58.80
70730;BME280;58315;53.336;55.932;2023-04-23T03:48:36;99047.81;;;12.85;58.15
70730;BME280;58315;53.336;55.932;2023-04-23T03:51:07;99053.25;;;12.75;58.26
70730;BME280;58315;53.336;55.932;2023-04-23T03:53:45;99055.25;;;12.97;57.82
70730;BME280;58315;53.336;55.932;2023-04-23T03:56:30;99061.38;;;13.06;57.63
70730;BME280;58315;53.336;55.932;2023-04-23T03:59:11;99061.88;;;13.10;57.38
70730;BME280;58315;53.336;55.932;2023-04-23T04:01:37;99066.50;;;13.16;57.18
70730;BME280;58315;53.336;55.932;2023-04-23T04:04:03;99068.50;;;13.22;57.05
70730;BME280;58315;53.336;55.932;2023-04-23T04:06:32;99071.50;;;13.27;56.86
70730;BME280;58315;53.336;55.932;2023-04-23T04:08:58;99067.88;;;13.28;57.05
70730;BME280;58315;53.336;55.932;2023-04-23T04:11:24;99071.63;;;13.42;57.00
70730;BME280;58315;53.336;55.932;2023-04-23T04:13:51;99080.91;;;13.54;56.72
70730;BME280;58315;53.336;55.932;2023-04-23T04:16:17;99082.56;;;13.55;56.68
70730;BME280;58315;53.336;55.932;2023-04-23T04:18:43;99085.25;;;13.47;56.59
70730;BME280;58315;53.336;55.932;2023-04-23T04:21:09;99090.69;;;13.45;56.95
70730;BME280;58315;53.336;55.932;2023-04-23T04:23:35;99100.84;;;13.50;56.87
70730;BME280;58315;53.336;55.932;2023-04-23T04:26:04;99097.06;;;13.28;57.10
70730;BME280;58315;53.336;55.932;2023-04-23T04:28:32;99100.03;;;13.25;57.23
70730;BME280;58315;53.336;55.932;2023-04-23T04:31:01;99100.34;;;13.06;57.46
70730;BME280;58315;53.336;55.932;2023-04-23T04:33:27;99101.66;;;12.85;58.23
70730;BME280;58315;53.336;55.932;2023-04-23T04:35:55;99121.72;;;12.88;58.17
70730;BME280;58315;53.336;55.932;2023-04-23T04:38:21;99116.59;;;12.94;58.08
70730;BME280;58315;53.336;55.932;2023-04-23T04:40:47;99113.63;;;13.06;58.01
70730;BME280;58315;53.336;55.932;2023-04-23T04:43:14;99126.69;;;13.15;57.78
70730;BME280;58315;53.336;55.932;2023-04-23T04:45:41;99126.84;;;13.22;57.71
70730;BME280;58315;53.336;55.932;2023-04-23T04:48:09;99131.84;;;13.17;57.63
70730;BME280;58315;53.336;55.932;2023-04-23T04:50:36;99130.16;;;13.16;57.51
70730;BME280;58315;53.336;55.932;2023-04-23T04:53:02;99138.44;;;13.04;57.82
70730;BME280;58315;53.336;55.932;2023-04-23T04:55:28;99144.94;;;13.10;57.85
70730;BME280;58315;53.336;55.932;2023-04-23T04:57:54;99149.25;;;13.11;57.74
70730;BME280;58315;53.336;55.932;2023-04-23T05:00:26;99155.03;;;13.07;57.64
70730;BME280;58315;53.336;55.932;2023-04-23T05:02:56;99154.53;;;13.03;57.50
70730;BME280;58315;53.336;55.932;2023-04-23T05:05:23;99164.50;;;13.09;57.55
70730;BME280;58315;53.336;55.932;2023-04-23T05:07:50;99160.00;;;13.01;57.42
70730;BME280;58315;53.336;55.932;2023-04-23T05:10:19;99169.81;;;13.09;57.52
70730;BME280;58315;53.336;55.932;2023-04-23T05:12:46;99163.81;;;13.15;57.23
70730;BME280;58315;53.336;55.932;2023-04-23T05:15:13;99182.22;;;13.09;57.10
70730;BME280;58315;53.336;55.932;2023-04-23T05:17:39;99180.41;;;13.17;57.05
70730;BME280;58315;53.336;55.932;2023-04-23T05:20:07;99183.09;;;13.25;56.84
70730;BME280;58315;53.336;55.932;2023-04-23T05:22:40;99179.28;;;13.44;56.63
70730;BME280;58315;53.336;55.932;2023-04-23T05:25:07;99186.94;;;13.39;56.44
70730;BME280;58315;53.336;55.932;2023-04-23T05:27:34;99185.75;;;13.50;56.24
70730;BME280;58315;53.336;55.932;2023-04-23T05:30:01;99185.41;;;13.61;55.96
70730;BME280;58315;53.336;55.932;2023-04-23T05:32:32;99197.19;;;13.59;55.89
70730;BME280;58315;53.336;55.932;2023-04-23T05:35:00;99191.03;;;13.66;55.86
70730;BME280;58315;53.336;55.932;2023-04-23T05:37:34;99201.00;;;13.48;55.78
70730;BME280;58315;53.336;55.932;2023-04-23T05:40:01;99202.34;;;13.68;55.78
70730;BME280;58315;53.336;55.932;2023-04-23T05:42:34;99206.78;;;13.92;55.86
70730;BME280;58315;53.336;55.932;2023-04-23T05:45:00;99205.44;;;14.05;55.17
70730;BME280;58315;53.336;55.932;2023-04-23T05:47:30;99213.41;;;14.05;54.72
70730;BME280;58315;53.336;55.932;2023-04-23T05:49:56;99218.34;;;14.16;54.67
70730;BME280;58315;53.336;55.932;2023-04-23T05:52:22;99224.03;;;14.05;54.49
70730;BME280;58315;53.336;55.932;2023-04-23T05:54:50;99223.69;;;14.08;54.92
70730;BME280;58315;53.336;55.932;2023-04-23T05:57:16;99223.81;;;14.22;54.58
70730;BME280;58315;53.336;55.932;2023-04-23T05:59:42;99225.56;;;14.46;53.87
70730;BME280;58315;53.336;55.932;2023-04-23T06:02:09;99231.00;;;14.61;53.55
70730;BME280;58315;53.336;55.932;2023-04-23T06:04:38;99231.38;;;14.42;53.26
70730;BME280;58315;53.336;55.932;2023-04-23T06:07:05;99238.09;;;14.21;53.50
70730;BME280;58315;53.336;55.932;2023-04-23T06:09:34;99247.56;;;14.24;54.02
70730;BME280;58315;53.336;55.932;2023-04-23T06:12:01;99245.59;;;14.10;53.93
70730;BME280;58315;53.336;55.932;2023-04-23T06:14:28;99247.78;;;13.98;54.21
70730;BME280;58315;53.336;55.932;2023-04-23T06:16:54;99252.41;;;13.96;54.36
70730;BME280;58315;53.336;55.932;2023-04-23T06:19:20;99256.59;;;13.90;54.51
70730;BME280;58315;53.336;55.932;2023-04-23T06:21:46;99259.91;;;13.76;54.41
70730;BME280;58315;53.336;55.932;2023-04-23T06:24:12;99259.75;;;13.61;54.55
70730;BME280;58315;53.336;55.932;2023-04-23T06:26:38;99260.25;;;13.65;54.54
70730;BME280;58315;53.336;55.932;2023-04-23T06:29:11;99266.22;;;13.50;55.32
70730;BME280;58315;53.336;55.932;2023-04-23T06:31:47;99269.22;;;13.64;54.98
70730;BME280;58315;53.336;55.932;2023-04-23T06:34:13;99272.03;;;13.79;54.77
70730;BME280;58315;53.336;55.932;2023-04-23T06:36:39;99276.50;;;13.86;54.94
70730;BME280;58315;53.336;55.932;2023-04-23T06:39:05;99272.53;;;13.90;54.99
70730;BME280;58315;53.336;55.932;2023-04-23T06:41:34;99284.97;;;13.82;55.35
70730;BME280;58315;53.336;55.932;2023-04-23T06:44:18;99285.97;;;13.97;55.55
70730;BME280;58315;53.336;55.932;2023-04-23T06:46:51;99285.97;;;13.97;55.79
70730;BME280;58315;53.336;55.932;2023-04-23T06:49:18;99295.41;;;13.99;56.04
70730;BME280;58315;53.336;55.932;2023-04-23T06:51:44;99291.09;;;13.98;55.41
70730;BME280;58315;53.336;55.932;2023-04-23T06:54:10;99298.22;;;14.06;54.78
70730;BME280;58315;53.336;55.932;2023-04-23T06:56:36;99295.44;;;14.08;54.28
70730;BME280;58315;53.336;55.932;2023-04-23T06:59:02;99306.06;;;14.08;54.33
70730;BME280;58315;53.336;55.932;2023-04-23T07:01:30;99309.03;;;14.05;54.00
70730;BME280;58315;53.336;55.932;2023-04-23T07:03:55;99311.19;;;14.01;54.16
70730;BME280;58315;53.336;55.932;2023-04-23T07:06:21;99313.34;;;14.14;54.06
70730;BME280;58315;53.336;55.932;2023-04-23T07:08:47;99308.03;;;14.06;54.18
70730;BME280;58315;53.336;55.932;2023-04-23T07:11:13;99316.34;;;14.19;54.03
70730;BME280;58315;53.336;55.932;2023-04-23T07:13:41;99312.31;;;14.31;54.07
70730;BME280;58315;53.336;55.932;2023-04-23T07:16:07;99312.31;;;14.31;53.60
70730;BME280;58315;53.336;55.932;2023-04-23T07:18:33;99311.63;;;14.45;53.10
70730;BME280;58315;53.336;55.932;2023-04-23T07:20:59;99305.47;;;14.37;52.37
70730;BME280;58315;53.336;55.932;2023-04-23T07:23:25;99329.59;;;14.52;52.80
70730;BME280;58315;53.336;55.932;2023-04-23T07:25:51;99330.22;;;14.45;52.50
70730;BME280;58315;53.336;55.932;2023-04-23T07:28:17;99327.44;;;14.31;52.59
70730;BME280;58315;53.336;55.932;2023-04-23T07:30:43;99334.06;;;14.35;53.46
70730;BME280;58315;53.336;55.932;2023-04-23T07:33:09;99328.09;;;14.41;53.25
70730;BME280;58315;53.336;55.932;2023-04-23T07:35:35;99336.03;;;14.57;52.67
70730;BME280;58315;53.336;55.932;2023-04-23T07:38:01;99344.22;;;14.56;52.54
70730;BME280;58315;53.336;55.932;2023-04-23T07:40:28;99342.03;;;14.51;52.31
70730;BME280;58315;53.336;55.932;2023-04-23T07:42:54;99344.69;;;14.51;52.66
70730;BME280;58315;53.336;55.932;2023-04-23T07:45:20;99351.53;;;14.37;52.39
70730;BME280;58315;53.336;55.932;2023-04-23T07:47:48;99359.84;;;14.26;52.44
70730;BME280;58315;53.336;55.932;2023-04-23T07:50:15;99360.16;;;14.15;53.09
70730;BME280;58315;53.336;55.932;2023-04-23T07:52:41;99354.34;;;14.19;53.40
70730;BME280;58315;53.336;55.932;2023-04-23T07:55:07;99362.00;;;14.22;53.03
70730;BME280;58315;53.336;55.932;2023-04-23T07:57:34;99364.13;;;14.35;53.39
70730;BME280;58315;53.336;55.932;2023-04-23T08:00:00;99368.94;;;14.40;52.47
70730;BME280;58315;53.336;55.932;2023-04-23T08:02:31;99372.09;;;14.43;52.42
70730;BME280;58315;53.336;55.932;2023-04-23T08:04:57;99374.75;;;14.43;52.59
70730;BME280;58315;53.336;55.932;2023-04-23T08:07:23;99371.47;;;14.50;52.53
70730;BME280;58315;53.336;55.932;2023-04-23T08:09:49;99376.09;;;14.56;52.55
70730;BME280;58315;53.336;55.932;2023-04-23T08:12:15;99377.75;;;14.65;52.49
70730;BME280;58315;53.336;55.932;2023-04-23T08:14:43;99382.31;;;14.95;52.56
70730;BME280;58315;53.336;55.932;2023-04-23T08:17:13;99385.22;;;15.17;51.91
70730;BME280;58315;53.336;55.932;2023-04-23T08:19:39;99386.16;;;15.32;51.21
70730;BME280;58315;53.336;55.932;2023-04-23T08:22:05;99378.72;;;15.19;50.46
70730;BME280;58315;53.336;55.932;2023-04-23T08:24:31;99373.69;;;15.33;50.67
70730;BME280;58315;53.336;55.932;2023-04-23T08:26:57;99387.13;;;15.39;50.44
70730;BME280;58315;53.336;55.932;2023-04-23T08:29:23;99383.41;;;15.49;50.24
70730;BME280;58315;53.336;55.932;2023-04-23T08:31:49;99380.56;;;15.50;49.97
70730;BME280;58315;53.336;55.932;2023-04-23T08:34:15;99373.94;;;15.46;49.26
70730;BME280;58315;53.336;55.932;2023-04-23T08:36:41;99384.50;;;15.31;49.33
70730;BME280;58315;53.336;55.932;2023-04-23T08:39:08;99395.25;;;14.99;49.56
70730;BME280;58315;53.336;55.932;2023-04-23T08:41:38;99393.13;;;14.94;50.15
70730;BME280;58315;53.336;55.932;2023-04-23T08:44:12;99395.25;;;14.99;49.60
70730;BME280;58315;53.336;55.932;2023-04-23T08:46:43;99391.63;;;15.00;49.28
70730;BME280;58315;53.336;55.932;2023-04-23T08:49:15;99392.97;;;14.87;49.35
70730;BME280;58315;53.336;55.932;2023-04-23T08:51:47;99395.94;;;15.01;49.13
70730;BME280;58315;53.336;55.932;2023-04-23T08:54:15;99402.91;;;15.02;49.32
70730;BME280;58315;53.336;55.932;2023-04-23T08:56:50;99400.06;;;15.11;49.09
70730;BME280;58315;53.336;55.932;2023-04-23T08:59:17;99403.69;;;15.18;49.03
70730;BME280;58315;53.336;55.932;2023-04-23T09:01:46;99414.78;;;15.30;48.54
70730;BME280;58315;53.336;55.932;2023-04-23T09:04:12;99407.31;;;15.26;48.33
70730;BME280;58315;53.336;55.932;2023-04-23T09:06:42;99412.31;;;15.29;48.56
70730;BME280;58315;53.336;55.932;2023-04-23T09:09:08;99417.69;;;15.52;48.27
70730;BME280;58315;53.336;55.932;2023-04-23T09:11:36;99420.59;;;15.73;48.26
70730;BME280;58315;53.336;55.932;2023-04-23T09:14:03;99416.16;;;15.88;47.63
70730;BME280;58315;53.336;55.932;2023-04-23T09:16:29;99417.41;;;16.01;47.18
70730;BME280;58315;53.336;55.932;2023-04-23T09:18:55;99420.31;;;16.14;46.83
70730;BME280;58315;53.336;55.932;2023-04-23T09:21:22;99420.66;;;16.11;46.28
70730;BME280;58315;53.336;55.932;2023-04-23T09:23:51;99425.47;;;16.38;46.23
70730;BME280;58315;53.336;55.932;2023-04-23T09:26:21;99424.69;;;16.53;45.16
70730;BME280;58315;53.336;55.932;2023-04-23T09:28:50;99426.81;;;16.72;45.36
70730;BME280;58315;53.336;55.932;2023-04-23T09:31:22;99428.97;;;16.92;45.35
70730;BME280;58315;53.336;55.932;2023-04-23T09:33:53;99427.78;;;16.79;44.42
70730;BME280;58315;53.336;55.932;2023-04-23T09:36:20;99424.88;;;16.66;44.95
70730;BME280;58315;53.336;55.932;2023-04-23T09:38:48;99431.00;;;16.75;45.25
70730;BME280;58315;53.336;55.932;2023-04-23T09:41:27;99428.88;;;16.85;44.99
70730;BME280;58315;53.336;55.932;2023-04-23T09:43:55;99428.97;;;17.06;43.99
70730;BME280;58315;53.336;55.932;2023-04-23T09:46:41;99428.78;;;17.38;43.93
70730;BME280;58315;53.336;55.932;2023-04-23T09:49:09;99436.50;;;17.47;43.77
70730;BME280;58315;53.336;55.932;2023-04-23T09:51:39;99434.19;;;17.59;43.40
70730;BME280;58315;53.336;55.932;2023-04-23T09:54:12;99430.78;;;17.50;43.00
70730;BME280;58315;53.336;55.932;2023-04-23T09:56:42;99437.44;;;17.10;42.94
70730;BME280;58315;53.336;55.932;2023-04-23T09:59:25;99432.22;;;17.17;42.58
70730;BME280;58315;53.336;55.932;2023-04-23T10:01:52;99432.88;;;17.04;43.25
70730;BME280;58315;53.336;55.932;2023-04-23T10:04:22;99427.78;;;17.09;43.40
70730;BME280;58315;53.336;55.932;2023-04-23T10:07:03;99436.06;;;17.29;43.27
70730;BME280;58315;53.336;55.932;2023-04-23T10:09:33;99433.94;;;17.24;42.94
70730;BME280;58315;53.336;55.932;2023-04-23T10:12:01;99434.31;;;17.21;43.06
70730;BME280;58315;53.336;55.932;2023-04-23T10:14:28;99435.06;;;17.00;42.73
70730;BME280;58315;53.336;55.932;2023-04-23T10:16:58;99428.97;;;17.06;42.92
70730;BME280;58315;53.336;55.932;2023-04-23T10:19:25;99437.28;;;17.11;43.23
70730;BME280;58315;53.336;55.932;2023-04-23T10:21:56;99429.28;;;17.11;42.39
70730;BME280;58315;53.336;55.932;2023-04-23T10:24:26;99438.75;;;17.14;42.29
70730;BME280;58315;53.336;55.932;2023-04-23T10:26:56;99434.41;;;17.28;42.04
70730;BME280;58315;53.336;55.932;2023-04-23T10:29:26;99441.34;;;17.22;41.96
70730;BME280;58315;53.336;55.932;2023-04-23T10:32:01;99450.63;;;17.26;41.33
70730;BME280;58315;53.336;55.932;2023-04-23T10:34:29;99439.50;;;17.23;41.56
70730;BME280;58315;53.336;55.932;2023-04-23T10:36:57;99443.88;;;17.45;41.68
70730;BME280;58315;53.336;55.932;2023-04-23T10:39:26;99437.25;;;17.41;41.59
70730;BME280;58315;53.336;55.932;2023-04-23T10:41:54;99439.66;;;17.36;41.67
70730;BME280;58315;53.336;55.932;2023-04-23T10:44:21;99442.50;;;17.34;41.10
70730;BME280;58315;53.336;55.932;2023-04-23T10:46:54;99442.50;;;17.34;41.54
70730;BME280;58315;53.336;55.932;2023-04-23T10:49:24;99444.25;;;17.42;41.91
70730;BME280;58315;53.336;55.932;2023-04-23T10:52:16;99447.91;;;17.71;41.42
70730;BME280;58315;53.336;55.932;2023-04-23T10:55:03;99446.03;;;17.86;40.76
70730;BME280;58315;53.336;55.932;2023-04-23T10:58:04;99443.41;;;18.07;41.20
70730;BME280;58315;53.336;55.932;2023-04-23T11:00:43;99445.13;;;18.37;40.37
70730;BME280;58315;53.336;55.932;2023-04-23T11:03:36;99443.63;;;18.55;40.53
70730;BME280;58315;53.336;55.932;2023-04-23T11:06:08;99452.91;;;18.60;39.75
70730;BME280;58315;53.336;55.932;2023-04-23T11:08:37;99453.44;;;18.27;39.25
70730;BME280;58315;53.336;55.932;2023-04-23T11:11:07;99446.06;;;18.29;39.73
70730;BME280;58315;53.336;55.932;2023-04-23T11:13:33;99453.44;;;18.48;39.22
70730;BME280;58315;53.336;55.932;2023-04-23T11:16:13;99449.13;;;18.47;39.51
70730;BME280;58315;53.336;55.932;2023-04-23T11:19:02;99450.91;;;18.40;39.51
70730;BME280;58315;53.336;55.932;2023-04-23T11:24:30;99449.50;;;18.01;39.72
70730;BME280;58315;53.336;55.932;2023-04-23T11:26:57;99459.34;;;18.01;39.63
70730;BME280;58315;53.336;55.932;2023-04-23T11:29:26;99450.91;;;18.19;39.40
70730;BME280;58315;53.336;55.932;2023-04-23T11:31:53;99454.66;;;18.24;39.44
70730;BME280;58315;53.336;55.932;2023-04-23T11:34:21;99455.53;;;18.31;39.13
70730;BME280;58315;53.336;55.932;2023-04-23T11:36:50;99458.09;;;18.40;39.15
70730;BME280;58315;53.336;55.932;2023-04-23T11:39:16;99451.16;;;18.45;38.83
70730;BME280;58315;53.336;55.932;2023-04-23T11:41:44;99451.34;;;18.44;39.00
70730;BME280;58315;53.336;55.932;2023-04-23T11:44:15;99456.19;;;18.55;38.67
70730;BME280;58315;53.336;55.932;2023-04-23T11:46:41;99457.59;;;18.72;38.68
70730;BME280;58315;53.336;55.932;2023-04-23T11:49:08;99455.28;;;18.97;38.20
70730;BME280;58315;53.336;55.932;2023-04-23T11:51:40;99449.69;;;18.92;37.36
70730;BME280;58315;53.336;55.932;2023-04-23T11:54:07;99453.50;;;18.76;37.22
70730;BME280;58315;53.336;55.932;2023-04-23T11:56:33;99454.72;;;18.74;37.08
70730;BME280;58315;53.336;55.932;2023-04-23T11:59:01;99461.16;;;18.79;37.02
70730;BME280;58315;53.336;55.932;2023-04-23T12:04:13;99459.09;;;19.10;36.71
70730;BME280;58315;53.336;55.932;2023-04-23T12:06:42;99460.28;;;19.07;36.67
70730;BME280;58315;53.336;55.932;2023-04-23T12:09:09;99452.91;;;19.09;36.09
70730;BME280;58315;53.336;55.932;2023-04-23T12:11:37;99449.75;;;18.99;36.54
70730;BME280;58315;53.336;55.932;2023-04-23T12:14:03;99456.19;;;19.11;36.62
70730;BME280;58315;53.336;55.932;2023-04-23T12:16:34;99449.81;;;19.12;35.74
70730;BME280;58315;53.336;55.932;2023-04-23T12:19:01;99452.66;;;19.04;36.20
70730;BME280;58315;53.336;55.932;2023-04-23T12:21:27;99457.72;;;18.92;35.99
70730;BME280;58315;53.336;55.932;2023-04-23T12:23:55;99457.38;;;19.02;35.97
70730;BME280;58315;53.336;55.932;2023-04-23T12:26:24;99461.06;;;19.01;35.58
70730;BME280;58315;53.336;55.932;2023-04-23T12:28:52;99454.16;;;18.85;35.15
70730;BME280;58315;53.336;55.932;2023-04-23T12:31:20;99455.25;;;18.91;35.24
70730;BME280;58315;53.336;55.932;2023-04-23T12:33:46;99456.59;;;19.08;35.80
70730;BME280;58315;53.336;55.932;2023-04-23T12:36:14;99455.47;;;19.24;35.81
70730;BME280;58315;53.336;55.932;2023-04-23T12:38:43;99456.91;;;19.26;35.33
70730;BME280;58315;53.336;55.932;2023-04-23T12:41:09;99448.13;;;19.39;35.13
70730;BME280;58315;53.336;55.932;2023-04-23T12:43:36;99452.09;;;19.50;34.84
70730;BME280;58315;53.336;55.932;2023-04-23T12:46:02;99455.81;;;19.56;34.86
70730;BME280;58315;53.336;55.932;2023-04-23T12:48:28;99461.38;;;19.54;34.57
70730;BME280;58315;53.336;55.932;2023-04-23T12:50:54;99450.59;;;19.41;34.06
70730;BME280;58315;53.336;55.932;2023-04-23T12:53:20;99457.19;;;19.45;34.40
70730;BME280;58315;53.336;55.932;2023-04-23T12:55:46;99459.69;;;19.46;33.88
70730;BME280;58315;53.336;55.932;2023-04-23T12:58:13;99453.94;;;19.56;33.76
70730;BME280;58315;53.336;55.932;2023-04-23T13:00:39;99450.44;;;19.56;32.59